»·PEaware :: AAR238 KSFO-RKSI

AAR238 :: KSFO-RKSI

FLIGHT INFORMATION

Flight Status: Arrived
Operator:
Asiana Airlines
More flights by this operator :: More flights under this callsign
Pilot: John W. (11114)
Aircraft: Unknown
(B748)
More flights by this aircraft type
Origin: KSFO San Francisco Intl
United States
Destination: RKSI Incheon Intl
Republic of Korea
More flights between these airports :: More routes between these airports
Route: +GNNRR2 AMAKR REDWD UNVER NULUK R220 NODAN R217 ASTER Y514 SDE Y512 GTC L512 TENAS Y437 KAE Y697 KARBU
File this flight plan on PilotEdge
Remarks:
Altitude:
(Current/Filed)
32,000ft
Speed:
(Current/Filed)
450kts
Departed: 05-Jan-20 01:08 PM
Arrived: 06-Jan-20 01:52 AM
Distance/Time
Traveled:
4903nm/12:43
Distance/Time
To Go:
Arrived

Flight Plot

Page will automatically refresh every two minutes.

Flight plan parsing failed; only flown route is shown


Map Options




Map Legend


Flown Route
Filed Route
Departure Airport
Arrival Airport
Navaid (VOR, NDB)
Fix

Horizontal Profiles

Position Reports

Time Latitude Longitude Heading Altitude Ground
Speed
05-Jan-20 12:41 37.613961 -122.387669 290 25ft 0kts
05-Jan-20 12:42 37.613961 -122.387669 290 25ft 0kts
05-Jan-20 12:43 37.613961 -122.387669 290 25ft 0kts
05-Jan-20 12:44 37.613961 -122.387669 290 25ft 0kts
05-Jan-20 12:45 37.613961 -122.387669 290 25ft 0kts
05-Jan-20 12:46 37.613961 -122.387669 290 25ft 0kts
05-Jan-20 12:47 37.613961 -122.387669 290 25ft 0kts
05-Jan-20 12:48 37.613961 -122.387669 290 25ft 0kts
05-Jan-20 12:49 37.613961 -122.387669 290 25ft 0kts
05-Jan-20 12:50 37.613877 -122.387396 290 25ft 2kts
05-Jan-20 12:51 37.613638 -122.386612 290 25ft 0kts
05-Jan-20 12:52 37.613638 -122.386612 290 25ft 0kts
05-Jan-20 12:53 37.613638 -122.386612 290 25ft 0kts
05-Jan-20 12:54 37.613616 -122.386801 240 25ft 3kts
05-Jan-20 12:55 37.612315 -122.387650 206 25ft 6kts
05-Jan-20 12:56 37.610750 -122.387035 117 25ft 8kts
05-Jan-20 12:57 37.608726 -122.384897 180 25ft 9kts
05-Jan-20 12:58 37.605932 -122.383547 129 25ft 12kts
05-Jan-20 12:59 37.606101 -122.379256 29 25ft 15kts
05-Jan-20 13:00 37.609840 -122.376781 28 25ft 13kts
05-Jan-20 13:01 37.613050 -122.374656 27 25ft 12kts
05-Jan-20 13:02 37.615606 -122.371750 89 25ft 13kts
05-Jan-20 13:03 37.613802 -122.367900 126 25ft 12kts
05-Jan-20 13:04 37.612053 -122.363852 117 25ft 13kts
05-Jan-20 13:05 37.610717 -122.360643 115 25ft 0kts
05-Jan-20 13:06 37.611370 -122.358749 18 25ft 9kts
05-Jan-20 13:07 37.616542 -122.369885 298 26ft 129kts
05-Jan-20 13:08 37.638209 -122.420231 306 1488ft 172kts
05-Jan-20 13:09 37.665798 -122.471451 303 2261ft 196kts
05-Jan-20 13:10 37.689961 -122.533189 306 3122ft 216kts
05-Jan-20 13:11 37.730722 -122.598653 308 3542ft 243kts
05-Jan-20 13:12 37.771981 -122.668385 308 4777ft 250kts
05-Jan-20 13:14 37.813531 -122.739298 308 6431ft 253kts
05-Jan-20 13:15 37.868351 -122.795508 327 8638ft 256kts
05-Jan-20 13:16 37.927482 -122.843514 326 11384ft 247kts
05-Jan-20 13:17 37.986940 -122.892667 325 12931ft 283kts
05-Jan-20 13:18 38.061276 -122.954658 324 13460ft 358kts
05-Jan-20 13:19 38.148358 -123.027202 324 15497ft 386kts
05-Jan-20 13:20 38.240046 -123.103782 323 17847ft 401kts
05-Jan-20 13:21 38.334927 -123.183515 322 20023ft 416kts
05-Jan-20 13:22 38.432972 -123.266221 322 22042ft 430kts
05-Jan-20 13:23 38.534171 -123.351870 322 23951ft 443kts
05-Jan-20 13:24 38.637988 -123.440047 321 25532ft 455kts
05-Jan-20 13:25 38.743794 -123.530106 321 27332ft 455kts
05-Jan-20 13:26 38.848862 -123.619863 320 28908ft 453kts
05-Jan-20 13:27 38.953213 -123.709668 320 30241ft 451kts
05-Jan-20 13:28 39.029944 -123.829532 294 31252ft 433kts
05-Jan-20 13:29 39.082667 -123.968171 292 32190ft 431kts
05-Jan-20 13:29 39.125973 -124.084343 293 32662ft 431kts
05-Jan-20 13:31 39.187234 -124.246512 293 32671ft 432kts
05-Jan-20 13:32 39.239471 -124.385706 293 32669ft 430kts
05-Jan-20 13:32 39.282633 -124.501622 294 32670ft 430kts
05-Jan-20 13:34 39.342900 -124.664354 294 32670ft 429kts
05-Jan-20 13:34 39.385662 -124.780357 294 32671ft 429kts
05-Jan-20 13:35 39.436632 -124.919253 295 32670ft 427kts
05-Jan-20 13:37 39.495873 -125.081501 295 32670ft 425kts
05-Jan-20 13:37 39.537570 -125.196244 295 32671ft 424kts
05-Jan-20 13:38 39.587567 -125.334420 296 32670ft 421kts
05-Jan-20 13:39 39.637017 -125.471725 297 32669ft 418kts
05-Jan-20 13:40 39.685957 -125.608252 297 32669ft 416kts
05-Jan-20 13:41 39.734419 -125.744079 298 32668ft 414kts
05-Jan-20 13:42 39.782722 -125.880101 298 32669ft 413kts
05-Jan-20 13:43 39.830554 -126.015418 298 32670ft 411kts
05-Jan-20 13:44 39.878218 -126.150153 298 32668ft 411kts
05-Jan-20 13:45 39.925769 -126.285825 298 32667ft 411kts
05-Jan-20 13:46 39.973020 -126.422090 298 32659ft 413kts
05-Jan-20 13:47 40.029404 -126.551229 309 32657ft 406kts
05-Jan-20 13:48 40.099356 -126.665885 310 32658ft 403kts
05-Jan-20 13:49 40.168696 -126.780583 310 32656ft 402kts
05-Jan-20 13:50 40.237357 -126.896158 310 32655ft 400kts
05-Jan-20 13:51 40.306855 -127.009656 315 32656ft 398kts
05-Jan-20 13:52 40.387056 -127.108952 318 32653ft 395kts
05-Jan-20 13:53 40.467368 -127.207281 317 32651ft 395kts
05-Jan-20 13:54 40.547222 -127.305970 318 32650ft 394kts
05-Jan-20 13:55 40.627339 -127.404077 318 32655ft 393kts
05-Jan-20 13:56 40.706840 -127.502398 317 32654ft 392kts
05-Jan-20 13:57 40.786235 -127.601129 317 32653ft 391kts
05-Jan-20 13:58 40.864877 -127.699314 317 32649ft 390kts
05-Jan-20 13:59 40.943403 -127.797723 317 32646ft 388kts
05-Jan-20 14:00 41.021816 -127.896309 317 32645ft 387kts
05-Jan-20 14:01 41.099445 -127.994249 317 32639ft 385kts
05-Jan-20 14:02 41.176707 -128.092072 317 32627ft 382kts
05-Jan-20 14:03 41.253319 -128.189389 317 32627ft 381kts
05-Jan-20 14:04 41.329866 -128.286960 317 32626ft 381kts
05-Jan-20 14:05 41.403156 -128.388256 303 32617ft 384kts
05-Jan-20 14:06 41.452202 -128.515749 302 32627ft 388kts
05-Jan-20 14:07 41.500818 -128.644447 301 32625ft 389kts
05-Jan-20 14:08 41.549577 -128.773997 301 32624ft 391kts
05-Jan-20 14:09 41.598137 -128.903580 301 32621ft 392kts
05-Jan-20 14:10 41.647024 -129.034624 301 32620ft 393kts
05-Jan-20 14:11 41.695711 -129.165734 301 32618ft 395kts
05-Jan-20 14:12 41.744362 -129.297340 300 32616ft 395kts
05-Jan-20 14:13 41.793051 -129.429672 300 32613ft 395kts
05-Jan-20 14:14 41.841591 -129.562225 300 32611ft 396kts
05-Jan-20 14:15 41.890139 -129.694507 300 32608ft 395kts
05-Jan-20 14:16 41.938300 -129.827974 299 32608ft 397kts
05-Jan-20 14:17 41.986309 -129.961704 300 32606ft 396kts
05-Jan-20 14:18 42.062148 -130.065021 321 32603ft 391kts
05-Jan-20 14:19 42.148712 -130.154454 321 32602ft 391kts
05-Jan-20 14:20 42.234757 -130.244058 321 32597ft 391kts
05-Jan-20 14:21 42.321070 -130.333618 321 32574ft 391kts
05-Jan-20 14:22 42.407245 -130.423378 321 32572ft 391kts
05-Jan-20 14:23 42.493532 -130.513867 320 32570ft 391kts
05-Jan-20 14:24 42.579422 -130.604372 320 32567ft 391kts
05-Jan-20 14:25 42.665421 -130.695320 320 32565ft 392kts
05-Jan-20 14:26 42.751330 -130.786502 320 32562ft 392kts
05-Jan-20 14:27 42.837219 -130.878005 320 32559ft 392kts
05-Jan-20 14:28 42.923105 -130.969827 320 32557ft 392kts
05-Jan-20 14:29 43.008896 -131.061877 320 32554ft 392kts
05-Jan-20 14:30 43.094383 -131.153955 319 32551ft 392kts
05-Jan-20 14:31 43.179999 -131.246507 319 32548ft 392kts
05-Jan-20 14:32 43.265681 -131.339467 319 32545ft 392kts
05-Jan-20 14:33 43.351143 -131.432529 319 32541ft 392kts
05-Jan-20 14:34 43.436681 -131.526020 319 32538ft 392kts
05-Jan-20 14:35 43.521894 -131.619503 318 32534ft 392kts
05-Jan-20 14:36 43.606758 -131.712947 318 32530ft 391kts
05-Jan-20 14:37 43.691941 -131.807094 318 32501ft 392kts
05-Jan-20 14:38 43.776904 -131.901355 318 32501ft 391kts
05-Jan-20 14:39 43.861526 -131.995590 318 32496ft 391kts
05-Jan-20 14:40 43.946414 -132.090373 318 32495ft 391kts
05-Jan-20 14:41 44.030775 -132.185109 318 32502ft 391kts
05-Jan-20 14:42 44.115234 -132.280244 317 32500ft 391kts
05-Jan-20 14:43 44.199780 -132.375821 317 32370ft 391kts
05-Jan-20 14:44 44.284305 -132.471748 317 32377ft 391kts
05-Jan-20 14:45 44.368449 -132.567602 317 33248ft 389kts
05-Jan-20 14:46 44.451807 -132.662927 317 33946ft 386kts
05-Jan-20 14:47 44.535074 -132.758510 317 34323ft 388kts
05-Jan-20 14:48 44.618459 -132.854598 317 34324ft 388kts
05-Jan-20 14:49 44.701857 -132.951054 317 34319ft 388kts
05-Jan-20 14:50 44.785533 -133.048222 316 34315ft 388kts
05-Jan-20 14:51 44.868704 -133.145183 316 34332ft 389kts
05-Jan-20 14:52 44.951848 -133.242468 316 34323ft 388kts
05-Jan-20 14:53 45.034771 -133.339899 316 34323ft 388kts
05-Jan-20 14:54 45.117913 -133.437964 316 34318ft 387kts
05-Jan-20 14:55 45.200558 -133.535820 315 34308ft 387kts
05-Jan-20 14:56 45.282899 -133.633697 315 34252ft 385kts
05-Jan-20 14:57 45.365097 -133.731787 315 34244ft 385kts
05-Jan-20 14:58 45.447060 -133.829981 315 34239ft 384kts
05-Jan-20 14:59 45.528637 -133.928099 314 34231ft 384kts
05-Jan-20 15:00 45.610514 -134.026966 314 34230ft 385kts
05-Jan-20 15:01 45.692079 -134.125850 314 34223ft 385kts
05-Jan-20 15:02 45.773587 -134.225055 314 34217ft 385kts
05-Jan-20 15:03 45.855063 -134.324616 314 34210ft 385kts
05-Jan-20 15:04 45.936479 -134.424503 314 34203ft 385kts
05-Jan-20 15:05 46.018086 -134.525023 314 34189ft 384kts
05-Jan-20 15:06 46.098535 -134.624517 313 34183ft 381kts
05-Jan-20 15:07 46.178821 -134.724209 313 34176ft 381kts
05-Jan-20 15:08 46.259094 -134.824283 313 34170ft 380kts
05-Jan-20 15:09 46.339237 -134.924597 313 34166ft 380kts
05-Jan-20 15:10 46.419367 -135.025297 313 34160ft 381kts
05-Jan-20 15:11 46.499301 -135.126162 313 34154ft 381kts
05-Jan-20 15:12 46.578996 -135.227132 313 34149ft 380kts
05-Jan-20 15:13 46.658760 -135.328600 313 34144ft 380kts
05-Jan-20 15:14 46.738417 -135.430345 312 34147ft 380kts
05-Jan-20 15:15 46.817497 -135.531766 312 34114ft 379kts
05-Jan-20 15:16 46.896872 -135.633982 312 34110ft 379kts
05-Jan-20 15:17 46.975551 -135.735719 312 34106ft 377kts
05-Jan-20 15:18 47.053843 -135.837369 312 34100ft 375kts
05-Jan-20 15:19 47.131902 -135.939130 312 34097ft 374kts
05-Jan-20 15:20 47.209567 -136.040790 311 34094ft 375kts
05-Jan-20 15:21 47.287098 -136.142692 311 34090ft 374kts
05-Jan-20 15:22 47.364628 -136.245015 311 34086ft 372kts
05-Jan-20 15:23 47.441660 -136.347096 311 34083ft 371kts
05-Jan-20 15:24 47.518416 -136.449231 311 34080ft 371kts
05-Jan-20 15:25 47.595051 -136.551624 311 34081ft 371kts
05-Jan-20 15:26 47.671637 -136.654373 311 34079ft 371kts
05-Jan-20 15:27 47.747928 -136.757151 310 34069ft 371kts
05-Jan-20 15:29 47.824668 -136.860963 310 34067ft 373kts
05-Jan-20 15:30 47.901289 -136.965048 310 34064ft 373kts
05-Jan-20 15:31 47.977849 -137.069488 310 34062ft 373kts
05-Jan-20 15:32 48.054241 -137.174125 309 34058ft 368kts
05-Jan-20 15:33 48.129593 -137.277791 309 34057ft 369kts
05-Jan-20 15:34 48.205018 -137.381986 309 34054ft 370kts
05-Jan-20 15:35 48.280496 -137.486688 309 34052ft 370kts
05-Jan-20 15:36 48.356179 -137.592124 309 34049ft 370kts
05-Jan-20 15:37 48.431400 -137.697361 308 34048ft 369kts
05-Jan-20 15:38 48.506615 -137.803035 308 34045ft 369kts
05-Jan-20 15:39 48.581670 -137.908933 308 34043ft 368kts
05-Jan-20 15:40 48.656357 -138.014759 308 34041ft 368kts
05-Jan-20 15:41 48.731191 -138.121251 308 34039ft 369kts
05-Jan-20 15:42 48.805553 -138.227527 307 34031ft 367kts
05-Jan-20 15:43 48.879804 -138.334094 307 34028ft 366kts
05-Jan-20 15:44 48.953678 -138.440583 307 34027ft 366kts
05-Jan-20 15:45 49.027151 -138.546945 307 34025ft 364kts
05-Jan-20 15:46 49.100595 -138.653717 306 34027ft 364kts
05-Jan-20 15:47 49.174103 -138.761051 306 34030ft 364kts
05-Jan-20 15:48 49.247087 -138.868079 306 34026ft 364kts
05-Jan-20 15:49 49.319893 -138.975301 306 34022ft 363kts
05-Jan-20 15:49 49.380810 -139.065380 306 34023ft 364kts
05-Jan-20 15:51 49.465557 -139.191237 306 34022ft 363kts
05-Jan-20 15:52 49.538000 -139.299327 305 34020ft 363kts
05-Jan-20 15:52 49.598471 -139.389920 305 34019ft 362kts
05-Jan-20 15:54 49.682531 -139.516399 305 34017ft 362kts
05-Jan-20 15:54 49.742477 -139.606993 305 33988ft 361kts
05-Jan-20 15:55 49.814576 -139.715533 304 33965ft 362kts
05-Jan-20 15:57 49.897963 -139.843042 304 33960ft 360kts
05-Jan-20 15:57 49.957192 -139.934098 304 33958ft 359kts
05-Jan-20 15:58 50.027399 -140.044271 302 33959ft 358kts
05-Jan-20 16:00 50.106477 -140.176856 302 33955ft 358kts
05-Jan-20 16:00 50.162882 -140.271655 302 33953ft 359kts
05-Jan-20 16:01 50.231023 -140.386568 302 33950ft 362kts
05-Jan-20 16:02 50.300402 -140.501645 303 33947ft 365kts
05-Jan-20 16:03 50.369998 -140.618614 302 33944ft 369kts
05-Jan-20 16:04 50.439973 -140.737160 303 33942ft 372kts
05-Jan-20 16:05 50.510449 -140.857218 302 33947ft 375kts
05-Jan-20 16:06 50.581306 -140.978528 302 33953ft 378kts
05-Jan-20 16:07 50.652450 -141.100930 302 33949ft 379kts
05-Jan-20 16:08 50.723723 -141.224146 302 33947ft 381kts
05-Jan-20 16:09 50.795194 -141.348315 302 33945ft 383kts
05-Jan-20 16:10 50.866950 -141.473591 302 33941ft 384kts
05-Jan-20 16:11 50.938718 -141.599510 302 33940ft 386kts
05-Jan-20 16:12 51.010753 -141.726532 302 33920ft 388kts
05-Jan-20 16:13 51.083420 -141.855313 302 33918ft 393kts
05-Jan-20 16:14 51.156425 -141.985361 303 33917ft 395kts
05-Jan-20 16:15 51.229997 -142.117095 303 33915ft 399kts
05-Jan-20 16:16 51.304003 -142.250304 303 33913ft 401kts
05-Jan-20 16:17 51.377933 -142.384078 303 33908ft 403kts
05-Jan-20 16:18 51.451903 -142.518635 303 33907ft 403kts
05-Jan-20 16:19 51.526094 -142.654314 302 33904ft 404kts
05-Jan-20 16:20 51.600169 -142.790516 302 33900ft 404kts
05-Jan-20 16:21 51.673809 -142.926648 302 33897ft 404kts
05-Jan-20 16:22 51.747402 -143.063431 302 33896ft 404kts
05-Jan-20 16:23 51.821133 -143.201214 302 33895ft 406kts
05-Jan-20 16:24 51.895060 -143.340125 302 33890ft 407kts
05-Jan-20 16:25 51.968753 -143.479359 302 33889ft 409kts
05-Jan-20 16:26 52.043027 -143.620482 303 33887ft 415kts
05-Jan-20 16:27 52.117698 -143.763143 302 33883ft 413kts
05-Jan-20 16:28 52.192070 -143.906044 302 33881ft 413kts
05-Jan-20 16:29 52.266094 -144.049085 302 33878ft 413kts
05-Jan-20 16:30 52.340172 -144.193038 302 33876ft 414kts
05-Jan-20 16:31 52.414294 -144.337920 302 33873ft 415kts
05-Jan-20 16:32 52.488405 -144.483600 302 33871ft 418kts
05-Jan-20 16:33 52.562954 -144.631018 302 33868ft 420kts
05-Jan-20 16:34 52.637420 -144.779129 302 33865ft 421kts
05-Jan-20 16:35 52.712235 -144.928818 302 33863ft 423kts
05-Jan-20 16:36 52.786858 -145.079012 302 33861ft 425kts
05-Jan-20 16:37 52.861733 -145.230622 302 33857ft 425kts
05-Jan-20 16:38 52.936640 -145.383215 302 33855ft 426kts
05-Jan-20 16:39 53.011221 -145.536067 302 33834ft 428kts
05-Jan-20 16:40 53.086218 -145.690716 302 33819ft 430kts
05-Jan-20 16:41 53.161140 -145.846169 302 33817ft 432kts
05-Jan-20 16:42 53.236478 -146.003460 302 33815ft 434kts
05-Jan-20 16:43 53.311793 -146.161695 302 33815ft 436kts
05-Jan-20 16:44 53.387142 -146.321004 302 33809ft 437kts
05-Jan-20 16:45 53.462297 -146.480918 302 33833ft 437kts
05-Jan-20 16:46 53.537339 -146.641616 302 33831ft 437kts
05-Jan-20 16:47 53.612131 -146.802810 302 33829ft 436kts
05-Jan-20 16:48 53.686531 -146.964196 301 33850ft 436kts
05-Jan-20 16:49 53.760784 -147.126311 301 33847ft 436kts
05-Jan-20 16:50 53.835084 -147.289582 301 33845ft 437kts
05-Jan-20 16:51 53.909166 -147.453442 301 33844ft 439kts
05-Jan-20 16:52 53.983155 -147.618179 301 33844ft 440kts
05-Jan-20 16:53 54.057371 -147.784517 301 33844ft 442kts
05-Jan-20 16:54 54.131255 -147.951221 301 33843ft 441kts
05-Jan-20 16:55 54.205094 -148.118944 301 33843ft 441kts
05-Jan-20 16:56 54.278620 -148.287086 301 33845ft 442kts
05-Jan-20 16:57 54.352062 -148.456176 301 33842ft 443kts
05-Jan-20 16:58 54.425562 -148.626553 301 33842ft 445kts
05-Jan-20 16:59 54.499025 -148.798024 301 33839ft 446kts
05-Jan-20 17:00 54.572426 -148.970538 301 33844ft 447kts
05-Jan-20 17:01 54.645891 -149.144406 301 33846ft 448kts
05-Jan-20 17:02 54.719016 -149.318690 301 33846ft 449kts
05-Jan-20 17:03 54.792049 -149.493982 301 33864ft 449kts
05-Jan-20 17:04 54.865432 -149.669719 300 33874ft 450kts
05-Jan-20 17:05 54.937886 -149.847162 300 33873ft 450kts
05-Jan-20 17:06 55.007330 -150.028545 293 33874ft 448kts
05-Jan-20 17:07 55.057048 -150.226004 289 33874ft 445kts
05-Jan-20 17:08 55.105458 -150.425434 289 33874ft 446kts
05-Jan-20 17:09 55.154600 -150.624668 290 33874ft 446kts
05-Jan-20 17:10 55.204373 -150.824678 290 33874ft 447kts
05-Jan-20 17:11 55.253082 -151.025007 289 33871ft 447kts
05-Jan-20 17:12 55.301469 -151.226399 289 33873ft 448kts
05-Jan-20 17:13 55.349424 -151.427947 289 33883ft 448kts
05-Jan-20 17:14 55.397273 -151.630989 289 33877ft 450kts
05-Jan-20 17:15 55.444911 -151.835052 289 33888ft 445kts
05-Jan-20 17:16 55.491038 -152.034515 289 33882ft 438kts
05-Jan-20 17:17 55.536836 -152.234430 288 33880ft 439kts
05-Jan-20 17:18 55.582164 -152.434185 288 33877ft 439kts
05-Jan-20 17:19 55.627316 -152.635062 288 33891ft 438kts
05-Jan-20 17:20 55.671964 -152.835596 288 33892ft 438kts
05-Jan-20 17:21 55.716277 -153.036572 288 33894ft 438kts
05-Jan-20 17:22 55.760398 -153.238631 288 33893ft 439kts
05-Jan-20 17:23 55.804222 -153.441311 288 33893ft 440kts
05-Jan-20 17:24 55.847837 -153.645028 288 33894ft 440kts
05-Jan-20 17:25 55.891168 -153.849452 287 33894ft 442kts
05-Jan-20 17:26 55.934125 -154.054167 287 33895ft 442kts
05-Jan-20 17:27 55.976927 -154.260229 287 33902ft 442kts
05-Jan-20 17:28 56.019317 -154.466415 287 33903ft 443kts
05-Jan-20 17:29 56.061421 -154.673348 287 33903ft 444kts
05-Jan-20 17:30 56.103338 -154.881523 287 33904ft 445kts
05-Jan-20 17:31 56.145014 -155.090707 286 33904ft 444kts
05-Jan-20 17:32 56.186107 -155.299175 286 33905ft 443kts
05-Jan-20 17:33 56.226814 -155.507907 286 33907ft 442kts
05-Jan-20 17:34 56.267070 -155.716567 286 33908ft 441kts
05-Jan-20 17:35 56.306840 -155.924960 285 33909ft 440kts
05-Jan-20 17:36 56.346131 -156.133097 285 33911ft 440kts
05-Jan-20 17:37 56.385235 -156.342541 285 33912ft 441kts
05-Jan-20 17:38 56.424162 -156.553373 285 33915ft 443kts
05-Jan-20 17:39 56.462808 -156.765067 285 33929ft 445kts
05-Jan-20 17:40 56.501320 -156.978450 285 33930ft 447kts
05-Jan-20 17:41 56.539590 -157.192888 285 33929ft 447kts
05-Jan-20 17:42 56.577379 -157.407218 285 33932ft 447kts
05-Jan-20 17:43 56.614927 -157.622745 285 33913ft 448kts
05-Jan-20 17:44 56.651965 -157.837774 284 33886ft 446kts
05-Jan-20 17:45 56.688627 -158.053375 284 33872ft 446kts
05-Jan-20 17:46 56.724953 -158.269408 284 33869ft 448kts
05-Jan-20 17:47 56.760958 -158.486456 284 33864ft 447kts
05-Jan-20 17:48 56.796623 -158.703852 284 33870ft 447kts
05-Jan-20 17:49 56.831879 -158.921621 284 33871ft 448kts
05-Jan-20 17:50 56.866842 -159.140324 283 33871ft 448kts
05-Jan-20 17:52 56.901410 -159.359325 283 33873ft 448kts
05-Jan-20 17:53 56.936371 -159.578847 283 33876ft 448kts
05-Jan-20 17:54 56.969658 -159.798321 283 33897ft 448kts
05-Jan-20 17:55 57.002845 -160.019165 282 33904ft 449kts
05-Jan-20 17:56 57.033804 -160.240888 282 33914ft 449kts
05-Jan-20 17:57 57.064225 -160.463796 281 33922ft 449kts
05-Jan-20 17:58 57.094882 -160.686683 282 33935ft 450kts
05-Jan-20 17:59 57.126225 -160.909262 282 33940ft 450kts
05-Jan-20 18:00 57.156463 -161.133362 281 33939ft 450kts
05-Jan-20 18:01 57.186133 -161.357753 281 33946ft 451kts
05-Jan-20 18:02 57.215477 -161.583305 281 33947ft 452kts
05-Jan-20 18:03 57.244526 -161.810122 281 33999ft 453kts
05-Jan-20 18:04 57.273212 -162.037662 281 34675ft 457kts
05-Jan-20 18:05 57.301697 -162.267293 281 35266ft 458kts
05-Jan-20 18:06 57.329756 -162.497193 280 35773ft 460kts
05-Jan-20 18:07 57.357515 -162.728456 280 35955ft 460kts
05-Jan-20 18:08 57.384858 -162.960141 280 35964ft 460kts
05-Jan-20 18:09 57.411780 -163.192228 280 35966ft 460kts
05-Jan-20 18:10 57.438292 -163.424777 280 35967ft 461kts
05-Jan-20 18:11 57.464432 -163.658124 279 35968ft 462kts
05-Jan-20 18:11 57.485913 -163.853205 279 35969ft 462kts
05-Jan-20 18:13 57.515548 -164.127224 279 35970ft 463kts
05-Jan-20 18:13 57.536247 -164.322232 279 36001ft 463kts
05-Jan-20 18:14 57.560822 -164.557863 279 36005ft 462kts
05-Jan-20 18:15 57.584884 -164.793038 278 36006ft 462kts
05-Jan-20 18:16 57.608512 -165.028534 278 36008ft 462kts
05-Jan-20 18:17 57.631605 -165.263446 278 36006ft 462kts
05-Jan-20 18:18 57.654471 -165.500717 278 36008ft 463kts
05-Jan-20 18:19 57.676777 -165.737117 278 36009ft 464kts
05-Jan-20 18:20 57.698850 -165.976027 278 36010ft 464kts
05-Jan-20 18:21 57.720354 -166.214010 277 35985ft 464kts
05-Jan-20 18:22 57.741419 -166.452341 277 35972ft 464kts
05-Jan-20 18:23 57.762033 -166.690725 277 35983ft 464kts
05-Jan-20 18:24 57.782191 -166.929411 277 35980ft 463kts
05-Jan-20 18:25 57.801914 -167.168555 277 35977ft 464kts
05-Jan-20 18:26 57.821172 -167.407758 276 35974ft 465kts
05-Jan-20 18:27 57.840095 -167.648673 276 35971ft 465kts
05-Jan-20 18:28 57.858516 -167.889317 276 35968ft 466kts
05-Jan-20 18:29 57.876476 -168.130185 276 35968ft 466kts
05-Jan-20 18:30 57.894011 -168.371516 276 35963ft 466kts
05-Jan-20 18:31 57.911070 -168.612999 275 35964ft 465kts
05-Jan-20 18:32 57.927638 -168.853957 275 35960ft 465kts
05-Jan-20 18:33 57.943837 -169.096608 275 35926ft 466kts
05-Jan-20 18:34 57.959550 -169.339102 275 35923ft 466kts
05-Jan-20 18:35 57.975590 -169.582174 275 35921ft 468kts
05-Jan-20 18:36 57.989888 -169.825691 274 35918ft 469kts
05-Jan-20 18:37 58.004825 -170.069948 277 35918ft 469kts
05-Jan-20 18:38 58.024487 -170.313019 276 35919ft 469kts
05-Jan-20 18:39 58.043005 -170.557199 276 35920ft 470kts
05-Jan-20 18:40 58.062511 -170.800421 277 35922ft 470kts
05-Jan-20 18:41 58.081494 -171.045978 276 35924ft 471kts
05-Jan-20 18:42 58.099434 -171.290840 276 35927ft 471kts
05-Jan-20 18:43 58.116845 -171.536368 276 35927ft 471kts
05-Jan-20 18:44 58.133744 -171.781700 276 35918ft 470kts
05-Jan-20 18:45 58.150191 -172.027608 275 35912ft 469kts
05-Jan-20 18:46 58.166069 -172.272290 275 35914ft 470kts
05-Jan-20 18:47 58.181601 -172.519133 275 35916ft 470kts
05-Jan-20 18:48 58.196589 -172.765076 275 35918ft 472kts
05-Jan-20 18:49 58.211223 -173.013292 275 35921ft 472kts
05-Jan-20 18:50 58.225318 -173.260663 274 35923ft 472kts
05-Jan-20 18:51 58.238967 -173.508838 274 35927ft 472kts
05-Jan-20 18:52 58.252099 -173.756530 274 35929ft 472kts
05-Jan-20 18:53 58.264754 -174.004427 274 35932ft 471kts
05-Jan-20 18:54 58.276922 -174.252330 274 35934ft 472kts
05-Jan-20 18:55 58.288647 -174.501246 273 35937ft 472kts
05-Jan-20 18:56 58.299893 -174.750405 273 35940ft 473kts
05-Jan-20 18:57 58.310653 -174.999697 273 35943ft 474kts
05-Jan-20 18:58 58.320950 -175.249658 273 35947ft 473kts
05-Jan-20 18:59 58.330721 -175.498747 273 35949ft 472kts
05-Jan-20 19:00 58.340009 -175.747990 272 35957ft 471kts
05-Jan-20 19:01 58.348805 -175.997115 272 35966ft 471kts
05-Jan-20 19:02 58.357121 -176.246421 272 35970ft 471kts
05-Jan-20 19:03 58.365008 -176.495716 273 35972ft 472kts
05-Jan-20 19:04 58.372967 -176.746241 271 36076ft 473kts
05-Jan-20 19:05 58.379334 -176.996743 271 36154ft 474kts
05-Jan-20 19:06 58.349245 -177.237245 246 36154ft 473kts
05-Jan-20 19:07 58.291847 -177.462863 244 36151ft 472kts
05-Jan-20 19:08 58.234378 -177.686347 244 36150ft 471kts
05-Jan-20 19:09 58.178673 -177.910954 244 36149ft 470kts
05-Jan-20 19:10 58.121757 -178.133865 244 36150ft 470kts
05-Jan-20 19:11 58.064255 -178.355821 244 36149ft 471kts
05-Jan-20 19:12 58.006203 -178.577530 244 36149ft 471kts
05-Jan-20 19:13 57.947918 -178.797935 244 36148ft 469kts
05-Jan-20 19:14 57.889339 -179.017297 243 36149ft 469kts
05-Jan-20 19:15 57.830256 -179.236406 243 36148ft 469kts
05-Jan-20 19:16 57.770823 -179.454703 243 36148ft 470kts
05-Jan-20 19:17 57.711015 -179.672286 243 36147ft 470kts
05-Jan-20 19:18 57.650941 -179.888768 243 36147ft 470kts
05-Jan-20 19:19 57.590372 179.895015 243 36213ft 470kts
05-Jan-20 19:20 57.529336 179.679169 243 36190ft 470kts
05-Jan-20 19:21 57.468103 179.464641 242 36191ft 469kts
05-Jan-20 19:22 57.406548 179.250973 242 36189ft 469kts
05-Jan-20 19:23 57.344718 179.038309 242 36183ft 468kts
05-Jan-20 19:24 57.282600 178.826600 242 36182ft 468kts
05-Jan-20 19:25 57.219980 178.615106 242 36178ft 468kts
05-Jan-20 19:26 57.157204 178.404988 242 36175ft 468kts
05-Jan-20 19:27 57.094003 178.195338 242 36172ft 468kts
05-Jan-20 19:28 57.030814 177.987559 241 36168ft 467kts
05-Jan-20 19:29 56.967706 177.779666 242 36165ft 466kts
05-Jan-20 19:30 56.903583 177.573322 241 36162ft 465kts
05-Jan-20 19:31 56.839199 177.368282 241 36158ft 465kts
05-Jan-20 19:32 56.774125 177.164055 240 36156ft 465kts
05-Jan-20 19:33 56.708308 176.960430 240 36153ft 464kts
05-Jan-20 19:34 56.642937 176.758258 241 36151ft 464kts
05-Jan-20 19:35 56.578268 176.555771 240 36148ft 463kts
05-Jan-20 19:36 56.512559 176.354663 240 36148ft 462kts
05-Jan-20 19:37 56.446688 176.155143 240 36143ft 461kts
05-Jan-20 19:38 56.380846 175.957448 240 36141ft 460kts
05-Jan-20 19:39 56.314564 175.760083 239 36139ft 460kts
05-Jan-20 19:40 56.247886 175.563164 239 36137ft 460kts
05-Jan-20 19:41 56.180854 175.366797 239 36135ft 461kts
05-Jan-20 19:42 56.113527 175.171185 239 36133ft 461kts
05-Jan-20 19:43 56.045888 174.976213 239 36131ft 461kts
05-Jan-20 19:44 55.977844 174.781658 239 36131ft 458kts
05-Jan-20 19:45 55.910594 174.590886 238 36128ft 455kts
05-Jan-20 19:46 55.842660 174.399680 238 36127ft 457kts
05-Jan-20 19:47 55.774531 174.209428 238 36124ft 457kts
05-Jan-20 19:48 55.705577 174.018375 238 36100ft 458kts
05-Jan-20 19:49 55.636673 173.828934 238 36099ft 456kts
05-Jan-20 19:50 55.567759 173.640929 238 36098ft 455kts
05-Jan-20 19:51 55.498912 173.454530 237 36097ft 453kts
05-Jan-20 19:52 55.430089 173.269601 237 36096ft 450kts
05-Jan-20 19:53 55.361065 173.085521 237 36095ft 449kts
05-Jan-20 19:54 55.291961 172.902595 237 36094ft 448kts
05-Jan-20 19:55 55.222846 172.720997 237 36093ft 448kts
05-Jan-20 19:56 55.153559 172.540254 237 36093ft 450kts
05-Jan-20 19:57 55.084063 172.358634 237 36092ft 448kts
05-Jan-20 19:58 55.014008 172.179193 236 36092ft 447kts
05-Jan-20 19:59 54.943558 172.000266 236 36092ft 445kts
05-Jan-20 20:00 54.872080 171.825579 235 36090ft 443kts
05-Jan-20 20:01 54.799708 171.652337 235 36089ft 443kts
05-Jan-20 20:02 54.727340 171.479846 235 36089ft 441kts
05-Jan-20 20:03 54.656165 171.307187 235 36088ft 441kts
05-Jan-20 20:04 54.584120 171.135982 234 36087ft 441kts
05-Jan-20 20:05 54.511640 170.965317 234 36089ft 433kts
05-Jan-20 20:06 54.441689 170.801760 234 36084ft 422kts
05-Jan-20 20:07 54.371820 170.639475 234 36083ft 422kts
05-Jan-20 20:09 54.301838 170.477956 233 36079ft 421kts
05-Jan-20 20:10 54.231922 170.317650 233 36080ft 420kts
05-Jan-20 20:11 54.161848 170.158019 233 36078ft 419kts
05-Jan-20 20:12 54.091654 169.999137 233 36077ft 419kts
05-Jan-20 20:13 54.021217 169.840694 233 36075ft 419kts
05-Jan-20 20:14 53.950692 169.683049 232 36073ft 419kts
05-Jan-20 20:15 53.880343 169.525384 232 36071ft 419kts
05-Jan-20 20:16 53.809206 169.369213 231 36069ft 419kts
05-Jan-20 20:17 53.739254 169.211488 236 36066ft 419kts
05-Jan-20 20:18 53.681599 169.040305 238 36064ft 421kts
05-Jan-20 20:19 53.623541 168.868519 238 36060ft 421kts
05-Jan-20 20:20 53.565346 168.696706 239 36050ft 421kts
05-Jan-20 20:21 53.507710 168.524914 237 36045ft 423kts
05-Jan-20 20:22 53.448641 168.354492 237 36042ft 422kts
05-Jan-20 20:23 53.389553 168.184666 237 36037ft 422kts
05-Jan-20 20:24 53.329808 168.015122 237 36033ft 422kts
05-Jan-20 20:25 53.269531 167.845543 236 36029ft 425kts
05-Jan-20 20:26 53.209493 167.675425 237 36024ft 425kts
05-Jan-20 20:27 53.149618 167.505477 236 36019ft 426kts
05-Jan-20 20:28 53.088753 167.335546 235 36014ft 426kts
05-Jan-20 20:28 53.037967 167.194877 235 36011ft 426kts
05-Jan-20 20:30 52.966552 166.998488 235 36003ft 426kts
05-Jan-20 20:30 52.915166 166.858132 235 35980ft 427kts
05-Jan-20 20:31 52.853409 166.690477 234 35971ft 428kts
05-Jan-20 20:33 52.780550 166.494114 234 35965ft 428kts
05-Jan-20 20:33 52.728438 166.354593 234 35960ft 429kts
05-Jan-20 20:34 52.665514 166.187134 233 35954ft 430kts
05-Jan-20 20:36 52.591703 165.992130 233 35948ft 430kts
05-Jan-20 20:36 52.538536 165.852594 233 35944ft 432kts
05-Jan-20 20:37 52.474570 165.685722 233 35938ft 432kts
05-Jan-20 20:38 52.410568 165.519841 232 35933ft 432kts
05-Jan-20 20:39 52.346094 165.353824 232 35928ft 432kts
05-Jan-20 20:40 52.281132 165.187632 232 35923ft 433kts
05-Jan-20 20:41 52.215961 165.022001 232 35919ft 434kts
05-Jan-20 20:42 52.150272 164.856125 232 35914ft 436kts
05-Jan-20 20:43 52.084152 164.690221 232 35909ft 437kts
05-Jan-20 20:44 52.017775 164.524775 231 35905ft 438kts
05-Jan-20 20:45 51.950837 164.358979 231 35901ft 440kts
05-Jan-20 20:46 51.883420 164.193085 231 35897ft 440kts
05-Jan-20 20:47 51.816265 164.027739 231 35893ft 440kts
05-Jan-20 20:48 51.748283 163.862700 230 35890ft 440kts
05-Jan-20 20:49 51.679967 163.698598 230 35885ft 441kts
05-Jan-20 20:50 51.611125 163.534162 230 35883ft 443kts
05-Jan-20 20:51 51.541857 163.370495 230 35880ft 445kts
05-Jan-20 20:52 51.471837 163.206219 230 35877ft 446kts
05-Jan-20 20:53 51.402362 163.040526 230 35874ft 448kts
05-Jan-20 20:54 51.332150 162.875836 230 35872ft 449kts
05-Jan-20 20:55 51.261391 162.711415 230 35869ft 450kts
05-Jan-20 20:56 51.190139 162.546967 229 35867ft 450kts
05-Jan-20 20:57 51.118507 162.382704 229 35866ft 451kts
05-Jan-20 20:58 51.046752 162.219185 229 35864ft 452kts
05-Jan-20 20:59 50.974554 162.055664 229 35862ft 452kts
05-Jan-20 21:00 50.901581 161.891478 229 35861ft 458kts
05-Jan-20 21:01 50.828096 161.727153 229 35860ft 458kts
05-Jan-20 21:02 50.754318 161.563192 229 35858ft 458kts
05-Jan-20 21:03 50.680344 161.399834 228 35858ft 459kts
05-Jan-20 21:04 50.605608 161.235816 228 35857ft 459kts
05-Jan-20 21:05 50.530951 161.072976 228 35856ft 461kts
05-Jan-20 21:06 50.455474 160.909381 228 36441ft 464kts
05-Jan-20 21:07 50.379526 160.744926 229 36945ft 468kts
05-Jan-20 21:08 50.302694 160.580457 229 37458ft 468kts
05-Jan-20 21:09 50.224999 160.415836 229 37816ft 471kts
05-Jan-20 21:10 50.146789 160.251197 229 37855ft 472kts
05-Jan-20 21:11 50.068143 160.087104 228 37855ft 473kts
05-Jan-20 21:12 49.989541 159.923402 229 37855ft 473kts
05-Jan-20 21:13 49.911190 159.759487 228 37856ft 473kts
05-Jan-20 21:14 49.832357 159.595937 228 37856ft 474kts
05-Jan-20 21:15 49.752587 159.433339 228 37857ft 475kts
05-Jan-20 21:16 49.672485 159.270309 228 37858ft 476kts
05-Jan-20 21:17 49.592075 159.107743 228 37859ft 477kts
05-Jan-20 21:18 49.511340 158.945624 228 37859ft 479kts
05-Jan-20 21:19 49.430953 158.782014 229 37860ft 479kts
05-Jan-20 21:20 49.349692 158.619012 229 37862ft 481kts
05-Jan-20 21:21 49.267928 158.456405 228 37863ft 481kts
05-Jan-20 21:22 49.185906 158.294353 228 37864ft 482kts
05-Jan-20 21:23 49.103536 158.132662 228 37865ft 482kts
05-Jan-20 21:24 49.021097 157.971767 228 37864ft 483kts
05-Jan-20 21:25 48.937623 157.809837 229 37869ft 486kts
05-Jan-20 21:26 48.853810 157.648230 229 37871ft 486kts
05-Jan-20 21:27 48.769720 157.487091 229 37873ft 487kts
05-Jan-20 21:28 48.685441 157.326515 229 37875ft 487kts
05-Jan-20 21:29 48.600735 157.166126 229 37877ft 488kts
05-Jan-20 21:30 48.515728 157.006130 229 37879ft 489kts
05-Jan-20 21:31 48.430200 156.846072 229 37881ft 490kts
05-Jan-20 21:32 48.344473 156.686650 229 37883ft 490kts
05-Jan-20 21:33 48.258460 156.527610 229 37885ft 492kts
05-Jan-20 21:34 48.172004 156.368669 229 37887ft 491kts
05-Jan-20 21:35 48.085522 156.210634 229 37890ft 492kts
05-Jan-20 21:36 47.998541 156.052630 229 37892ft 492kts
05-Jan-20 21:37 47.911247 155.894960 229 37894ft 492kts
05-Jan-20 21:38 47.824035 155.738366 229 37896ft 491kts
05-Jan-20 21:39 47.736374 155.581878 229 37898ft 491kts
05-Jan-20 21:40 47.648636 155.426208 229 37901ft 492kts
05-Jan-20 21:41 47.560805 155.271168 229 37912ft 491kts
05-Jan-20 21:42 47.472841 155.116820 229 37915ft 491kts
05-Jan-20 21:43 47.384592 154.962855 229 37918ft 491kts
05-Jan-20 21:44 47.296344 154.809764 229 37921ft 491kts
05-Jan-20 21:45 47.207773 154.656976 229 37924ft 490kts
05-Jan-20 21:46 47.118884 154.504501 229 37928ft 491kts
05-Jan-20 21:47 47.029899 154.352714 229 37930ft 490kts
05-Jan-20 21:48 46.940983 154.201886 229 37933ft 490kts
05-Jan-20 21:49 46.851717 154.051304 229 37936ft 490kts
05-Jan-20 21:50 46.762117 153.900994 230 37939ft 490kts
05-Jan-20 21:51 46.672473 153.751422 230 37941ft 490kts
05-Jan-20 21:52 46.582673 153.602411 230 37944ft 490kts
05-Jan-20 21:53 46.492525 153.453639 230 37945ft 490kts
05-Jan-20 21:54 46.402617 153.305357 230 37948ft 490kts
05-Jan-20 21:55 46.312044 153.157707 229 37950ft 490kts
05-Jan-20 21:56 46.221171 153.010568 229 37953ft 491kts
05-Jan-20 21:57 46.129480 152.864656 229 37954ft 491kts
05-Jan-20 21:58 46.037427 152.719451 229 37957ft 491kts
05-Jan-20 21:59 45.945640 152.574163 230 37958ft 488kts
05-Jan-20 22:00 45.854477 152.430080 230 37960ft 489kts
05-Jan-20 22:01 45.762601 152.286343 229 37962ft 489kts
05-Jan-20 22:02 45.670303 152.142811 229 37963ft 489kts
05-Jan-20 22:03 45.578185 152.000334 229 37965ft 489kts
05-Jan-20 22:04 45.485510 151.857736 229 37966ft 489kts
05-Jan-20 22:05 45.392973 151.716090 229 37967ft 488kts
05-Jan-20 22:06 45.300327 151.575005 230 37969ft 488kts
05-Jan-20 22:07 45.207598 151.434528 230 37970ft 487kts
05-Jan-20 22:08 45.115089 151.295102 230 37971ft 487kts
05-Jan-20 22:09 45.022102 151.155627 230 37972ft 486kts
05-Jan-20 22:10 44.929114 151.016873 230 37972ft 486kts
05-Jan-20 22:11 44.836163 150.878876 230 37973ft 486kts
05-Jan-20 22:12 44.742812 150.740977 230 37974ft 485kts
05-Jan-20 22:13 44.649683 150.604093 230 37974ft 485kts
05-Jan-20 22:14 44.556075 150.467193 231 37975ft 485kts
05-Jan-20 22:15 44.462598 150.331146 231 38003ft 485kts
05-Jan-20 22:16 44.368833 150.195373 231 38004ft 484kts
05-Jan-20 22:17 44.275111 150.060299 231 38005ft 484kts
05-Jan-20 22:18 44.181066 149.925428 231 38005ft 484kts
05-Jan-20 22:19 44.087165 149.791427 231 38005ft 484kts
05-Jan-20 22:20 43.992997 149.657730 231 37997ft 484kts
05-Jan-20 22:21 43.898781 149.524524 231 37992ft 483kts
05-Jan-20 22:22 43.804562 149.391992 231 37992ft 482kts
05-Jan-20 22:23 43.710387 149.260154 232 37993ft 482kts
05-Jan-20 22:24 43.615832 149.128413 232 37983ft 481kts
05-Jan-20 22:25 43.521507 148.997608 232 37981ft 480kts
05-Jan-20 22:26 43.427472 148.867818 232 37981ft 480kts
05-Jan-20 22:27 43.332913 148.737916 232 37982ft 479kts
05-Jan-20 22:28 43.238566 148.608902 232 37983ft 479kts
05-Jan-20 22:29 43.144323 148.480626 232 37983ft 478kts
05-Jan-20 22:30 43.049648 148.352381 232 37986ft 476kts
05-Jan-20 22:31 42.955516 148.225401 232 37986ft 476kts
05-Jan-20 22:32 42.861253 148.098842 232 37986ft 475kts
05-Jan-20 22:33 42.767064 147.972971 233 38000ft 475kts
05-Jan-20 22:34 42.672779 147.847497 233 38001ft 474kts
05-Jan-20 22:35 42.578607 147.722177 233 38001ft 472kts
05-Jan-20 22:37 42.484527 147.598371 233 38003ft 472kts
05-Jan-20 22:38 42.390193 147.474757 233 38007ft 472kts
05-Jan-20 22:39 42.295642 147.351283 233 38005ft 473kts
05-Jan-20 22:40 42.200571 147.227673 233 38006ft 473kts
05-Jan-20 22:41 42.106290 147.104297 233 38008ft 472kts
05-Jan-20 22:42 42.011495 146.981768 233 38011ft 473kts
05-Jan-20 22:43 41.916650 146.859927 234 38013ft 469kts
05-Jan-20 22:44 41.822356 146.739260 234 38016ft 469kts
05-Jan-20 22:45 41.727419 146.618443 234 38019ft 471kts
05-Jan-20 22:46 41.632630 146.497589 234 38024ft 470kts
05-Jan-20 22:47 41.537966 146.377023 234 38028ft 470kts
05-Jan-20 22:48 41.443050 146.257126 234 38033ft 470kts
05-Jan-20 22:49 41.347991 146.137632 234 38038ft 470kts
05-Jan-20 22:50 41.252706 146.018360 234 38045ft 470kts
05-Jan-20 22:51 41.157525 145.899720 234 38080ft 468kts
05-Jan-20 22:52 41.062401 145.781634 234 38084ft 468kts
05-Jan-20 22:53 40.967495 145.664318 234 38088ft 465kts
05-Jan-20 22:54 40.872973 145.547948 234 38094ft 465kts
05-Jan-20 22:55 40.778137 145.431667 234 38098ft 464kts
05-Jan-20 22:56 40.683625 145.316252 234 38103ft 464kts
05-Jan-20 22:57 40.589100 145.200792 234 38109ft 463kts
05-Jan-20 22:58 40.493925 145.085806 234 38110ft 463kts
05-Jan-20 22:58 40.418005 144.988420 244 38115ft 446kts
05-Jan-20 23:00 40.341525 144.830292 250 38082ft 436kts
05-Jan-20 23:00 40.288969 144.717591 249 38087ft 435kts
05-Jan-20 23:01 40.225723 144.582676 250 38095ft 434kts
05-Jan-20 23:03 40.152217 144.425362 250 38111ft 433kts
05-Jan-20 23:03 40.099566 144.313939 250 38117ft 432kts
05-Jan-20 23:04 40.036356 144.180823 250 38192ft 432kts
05-Jan-20 23:05 39.972955 144.047901 250 38196ft 432kts
05-Jan-20 23:06 39.909445 143.915319 250 38201ft 432kts
05-Jan-20 23:07 39.845522 143.782439 250 38206ft 432kts
05-Jan-20 23:08 39.781758 143.650445 249 38210ft 429kts
05-Jan-20 23:09 39.718285 143.519600 249 38213ft 428kts
05-Jan-20 23:10 39.654778 143.389229 249 38218ft 427kts
05-Jan-20 23:11 39.591262 143.259371 249 38238ft 425kts
05-Jan-20 23:12 39.527888 143.130332 249 38239ft 423kts
05-Jan-20 23:13 39.464428 143.001637 249 38243ft 421kts
05-Jan-20 23:14 39.401536 142.874433 250 38258ft 420kts
05-Jan-20 23:15 39.338435 142.746974 249 38262ft 420kts
05-Jan-20 23:16 39.275093 142.620499 249 38262ft 419kts
05-Jan-20 23:17 39.208602 142.496950 243 38267ft 426kts
05-Jan-20 23:18 39.129941 142.380155 242 38268ft 431kts
05-Jan-20 23:19 39.051974 142.263972 242 38270ft 429kts
05-Jan-20 23:20 38.974389 142.147557 242 38271ft 428kts
05-Jan-20 23:21 38.896917 142.031458 242 38271ft 426kts
05-Jan-20 23:22 38.819696 141.916584 242 38271ft 424kts
05-Jan-20 23:23 38.742434 141.802134 242 38271ft 424kts
05-Jan-20 23:24 38.665292 141.688275 241 38269ft 422kts
05-Jan-20 23:25 38.588201 141.574901 241 38269ft 423kts
05-Jan-20 23:26 38.510830 141.461515 241 38266ft 423kts
05-Jan-20 23:27 38.433402 141.348446 241 38263ft 423kts
05-Jan-20 23:28 38.355692 141.235363 241 38273ft 424kts
05-Jan-20 23:29 38.277988 141.122183 241 38267ft 424kts
05-Jan-20 23:30 38.199708 141.009402 241 38260ft 425kts
05-Jan-20 23:31 38.139375 140.888619 264 38255ft 390kts
05-Jan-20 23:32 38.122526 140.754053 269 38261ft 384kts
05-Jan-20 23:33 38.109863 140.618785 269 38283ft 386kts
05-Jan-20 23:34 38.096847 140.483480 269 38300ft 387kts
05-Jan-20 23:35 38.084315 140.347613 269 38321ft 387kts
05-Jan-20 23:36 38.071160 140.211970 269 38350ft 388kts
05-Jan-20 23:37 38.058124 140.075911 268 38354ft 389kts
05-Jan-20 23:38 38.044364 139.939759 268 38359ft 389kts
05-Jan-20 23:39 38.030420 139.803444 268 38366ft 389kts
05-Jan-20 23:40 38.016377 139.667227 268 38379ft 389kts
05-Jan-20 23:41 38.002177 139.531768 268 38394ft 388kts
05-Jan-20 23:42 37.988594 139.396376 268 38400ft 387kts
05-Jan-20 23:43 37.974030 139.260531 268 38405ft 387kts
05-Jan-20 23:44 37.959537 139.126031 269 38406ft 385kts
05-Jan-20 23:45 37.954874 138.990866 273 38407ft 382kts
05-Jan-20 23:46 37.951633 138.856490 272 38406ft 381kts
05-Jan-20 23:47 37.947997 138.722297 272 38405ft 381kts
05-Jan-20 23:48 37.944787 138.587849 272 38406ft 381kts
05-Jan-20 23:49 37.941481 138.453705 272 38404ft 381kts
05-Jan-20 23:50 37.937490 138.319525 272 38407ft 381kts
05-Jan-20 23:51 37.933221 138.185655 272 38406ft 381kts
05-Jan-20 23:52 37.928902 138.051596 272 38405ft 381kts
05-Jan-20 23:53 37.924322 137.917146 272 38404ft 381kts
05-Jan-20 23:54 37.919592 137.782895 272 38402ft 381kts
05-Jan-20 23:55 37.915329 137.648682 272 38401ft 381kts
05-Jan-20 23:56 37.910766 137.514920 271 38402ft 380kts
05-Jan-20 23:57 37.905605 137.381411 271 38400ft 380kts
05-Jan-20 23:58 37.900439 137.247638 271 38400ft 380kts
05-Jan-20 23:59 37.895233 137.114646 271 38410ft 378kts
06-Jan-20 00:00 37.889769 136.981266 271 38411ft 378kts
06-Jan-20 00:01 37.884176 136.848276 271 38410ft 378kts
06-Jan-20 00:02 37.879379 136.716105 271 38411ft 376kts
06-Jan-20 00:03 37.873971 136.583734 271 38411ft 376kts
06-Jan-20 00:04 37.868291 136.451349 271 38412ft 376kts
06-Jan-20 00:05 37.862448 136.319079 270 38403ft 376kts
06-Jan-20 00:06 37.856446 136.187047 270 38407ft 376kts
06-Jan-20 00:07 37.850282 136.054567 270 38407ft 376kts
06-Jan-20 00:08 37.843991 135.922669 270 38408ft 376kts
06-Jan-20 00:09 37.837533 135.790347 270 38410ft 376kts
06-Jan-20 00:10 37.830925 135.657979 270 38412ft 376kts
06-Jan-20 00:11 37.824200 135.526217 270 38414ft 375kts
06-Jan-20 00:12 37.817335 135.394660 270 38414ft 374kts
06-Jan-20 00:13 37.810354 135.263676 270 38414ft 374kts
06-Jan-20 00:14 37.803225 135.132654 270 38412ft 373kts
06-Jan-20 00:15 37.795973 135.002005 270 38423ft 371kts
06-Jan-20 00:16 37.788595 134.871717 270 38423ft 371kts
06-Jan-20 00:17 37.781075 134.741504 269 38431ft 370kts
06-Jan-20 00:18 37.773442 134.611821 269 38431ft 369kts
06-Jan-20 00:19 37.765711 134.482863 269 38420ft 369kts
06-Jan-20 00:20 37.757806 134.353419 269 38420ft 368kts
06-Jan-20 00:21 37.749825 134.224949 269 38413ft 368kts
06-Jan-20 00:22 37.741961 134.095859 269 38420ft 367kts
06-Jan-20 00:23 37.733687 133.967455 269 38419ft 367kts
06-Jan-20 00:24 37.725098 133.839254 269 38418ft 367kts
06-Jan-20 00:25 37.716427 133.710617 269 38418ft 367kts
06-Jan-20 00:26 37.707497 133.582302 269 38418ft 367kts
06-Jan-20 00:27 37.698406 133.453897 269 38417ft 366kts
06-Jan-20 00:28 37.689992 133.325868 269 38417ft 365kts
06-Jan-20 00:29 37.680766 133.197877 268 38406ft 365kts
06-Jan-20 00:30 37.671324 133.070453 268 38406ft 365kts
06-Jan-20 00:31 37.662085 132.943096 268 38405ft 364kts
06-Jan-20 00:32 37.652516 132.816285 268 38395ft 363kts
06-Jan-20 00:33 37.642790 132.689886 268 38394ft 362kts
06-Jan-20 00:34 37.641097 132.563785 272 38396ft 358kts
06-Jan-20 00:35 37.641329 132.437804 272 38396ft 358kts
06-Jan-20 00:36 37.641157 132.312342 272 38395ft 357kts
06-Jan-20 00:37 37.641232 132.187078 272 38394ft 357kts
06-Jan-20 00:38 37.641209 132.061609 272 38394ft 357kts
06-Jan-20 00:39 37.641131 131.936500 272 38392ft 356kts
06-Jan-20 00:40 37.640582 131.811193 272 38393ft 356kts
06-Jan-20 00:41 37.639710 131.686101 272 38392ft 356kts
06-Jan-20 00:42 37.638947 131.560853 273 38382ft 357kts
06-Jan-20 00:43 37.643109 131.435562 274 38373ft 357kts
06-Jan-20 00:44 37.647089 131.310507 273 38372ft 357kts
06-Jan-20 00:45 37.650776 131.185449 273 38371ft 357kts
06-Jan-20 00:46 37.654920 131.059976 273 38369ft 357kts
06-Jan-20 00:47 37.658724 130.934995 273 38368ft 357kts
06-Jan-20 00:48 37.662247 130.809573 273 38367ft 357kts
06-Jan-20 00:49 37.665606 130.684622 273 38366ft 357kts
06-Jan-20 00:50 37.669197 130.559427 272 38365ft 357kts
06-Jan-20 00:51 37.672109 130.433910 272 38362ft 357kts
06-Jan-20 00:52 37.674920 130.308803 272 38361ft 356kts
06-Jan-20 00:53 37.677663 130.184192 272 38362ft 355kts
06-Jan-20 00:54 37.680784 130.059495 272 38362ft 355kts
06-Jan-20 00:55 37.683227 129.934887 272 38356ft 355kts
06-Jan-20 00:56 37.685514 129.809768 272 38345ft 355kts
06-Jan-20 00:57 37.687735 129.685036 272 38345ft 357kts
06-Jan-20 00:58 37.689726 129.559566 272 38344ft 357kts
06-Jan-20 00:59 37.691543 129.434315 272 38348ft 357kts
06-Jan-20 01:00 37.693296 129.308739 272 38351ft 358kts
06-Jan-20 01:01 37.695572 129.183213 272 38355ft 358kts
06-Jan-20 01:02 37.697653 129.056725 271 38362ft 359kts
06-Jan-20 01:03 37.699000 128.930939 271 38369ft 348kts
06-Jan-20 01:04 37.700102 128.815887 271 38325ft 326kts
06-Jan-20 01:06 37.693908 128.702919 262 37286ft 319kts
06-Jan-20 01:07 37.677234 128.595315 263 35945ft 306kts
06-Jan-20 01:08 37.661501 128.491732 263 34633ft 294kts
06-Jan-20 01:09 37.646172 128.391958 263 33324ft 286kts
06-Jan-20 01:10 37.631081 128.294298 263 31982ft 280kts
06-Jan-20 01:11 37.616191 128.198217 262 30233ft 285kts
06-Jan-20 01:12 37.601654 128.102192 262 28654ft 275kts
06-Jan-20 01:13 37.587449 128.007539 261 27121ft 276kts
06-Jan-20 01:14 37.572740 127.913543 260 25817ft 273kts
06-Jan-20 01:15 37.557936 127.820170 260 24542ft 273kts
06-Jan-20 01:16 37.543143 127.727527 260 23211ft 267kts
06-Jan-20 01:17 37.528654 127.635691 259 21693ft 268kts
06-Jan-20 01:18 37.514086 127.544275 259 20149ft 265kts
06-Jan-20 01:19 37.499360 127.453220 259 18596ft 265kts
06-Jan-20 01:20 37.484727 127.362828 259 17322ft 258kts
06-Jan-20 01:21 37.470523 127.273365 259 16804ft 262kts
06-Jan-20 01:22 37.455928 127.183712 258 16621ft 261kts
06-Jan-20 01:23 37.441095 127.093994 258 16425ft 261kts
06-Jan-20 01:24 37.426241 127.004482 258 16219ft 260kts
06-Jan-20 01:25 37.411211 126.915990 256 15996ft 248kts
06-Jan-20 01:25 37.395516 126.847188 254 14781ft 239kts
06-Jan-20 01:27 37.374296 126.755759 254 13424ft 231kts
06-Jan-20 01:27 37.359406 126.691357 254 12445ft 229kts
06-Jan-20 01:29 37.338606 126.601428 253 11103ft 230kts
06-Jan-20 01:29 37.323615 126.535911 253 10092ft 234kts
06-Jan-20 01:30 37.305318 126.456960 252 8926ft 236kts
06-Jan-20 01:32 37.281400 126.367214 243 7973ft 211kts
06-Jan-20 01:32 37.260398 126.313321 244 8022ft 209kts
06-Jan-20 01:34 37.244737 126.229972 259 8015ft 212kts
06-Jan-20 01:34 37.241152 126.168850 270 8020ft 212kts
06-Jan-20 01:35 37.249696 126.094118 280 8013ft 217kts
06-Jan-20 01:36 37.270444 126.022463 291 8027ft 220kts
06-Jan-20 01:37 37.304102 125.957055 297 8018ft 225kts
06-Jan-20 01:38 37.348559 125.901056 314 8007ft 231kts
06-Jan-20 01:39 37.400605 125.853032 341 7855ft 258kts
06-Jan-20 01:40 37.452849 125.902099 65 7266ft 262kts
06-Jan-20 01:41 37.477063 125.986006 70 6564ft 255kts
06-Jan-20 01:42 37.502929 126.066530 69 5915ft 248kts
06-Jan-20 01:43 37.525247 126.135836 69 5419ft 239kts
06-Jan-20 01:44 37.552256 126.206067 56 4594ft 206kts
06-Jan-20 01:45 37.584871 126.260638 55 3430ft 189kts
06-Jan-20 01:46 37.585204 126.314537 133 2307ft 174kts
06-Jan-20 01:47 37.545769 126.350521 143 1735ft 175kts
06-Jan-20 01:48 37.508854 126.383421 141 883ft 147kts
06-Jan-20 01:49 37.476407 126.412497 141 187ft 136kts
06-Jan-20 01:50 37.451603 126.434610 145 36ft 48kts
06-Jan-20 01:51 37.449025 126.438623 73 36ft 7kts
06-Jan-20 01:52 37.449744 126.440888 58 36ft 6kts
06-Jan-20 01:53 37.450009 126.442960 98 36ft 6kts
06-Jan-20 01:54 37.450121 126.444470 81 36ft 2kts
06-Jan-20 01:55 37.450145 126.444666 81 36ft 0kts
06-Jan-20 01:56 37.450145 126.444666 81 36ft 0kts
06-Jan-20 01:57 37.450145 126.444666 81 36ft 0kts
06-Jan-20 01:58 37.450145 126.444666 81 36ft 0kts
06-Jan-20 01:59 37.450145 126.444666 81 36ft 0kts
06-Jan-20 02:00 37.450145 126.444666 81 36ft 0kts
06-Jan-20 02:01 37.450145 126.444666 81 36ft 0kts

Navigation Log

Ident Type
Flight plan parsing failed, navigation log unavailable